SAS2585 ESSA-LEBL
Flight info
| Callsign | SAS2585 |
|---|---|
| Flight time | 3h 14m |
| Altitude | FL380 |
| Route | NOSLI N850 TONSA DCT VEPIP DCT BALOX M736 GALMA Z94 KOMIB DCT NATOR N869 OLBEN DCT ONNOF DCT BELUS DCT PEQEF DCT KANIG DCT ALBER |
| Aircraft | B738/M-S/N |
Departure
| Time | 2026-05-04 04:25 |
|---|---|
| Airport | Stockholm-Arlanda Airport (ESSA) |
Arrival
| Time | 2026-05-04 07:40 |
|---|---|
| Airport | Josep Tarradellas Barcelona-El Prat Airport (LEBL) |
| Time | Latitude | Longitude | Altitude | Speed | Heading |
|---|---|---|---|---|---|
| 2026-05-04 04:10 | 59.65374 | 17.93172 | 135 ft | 0 kts | 219° |
| 2026-05-04 04:14 | 59.65379 | 17.93181 | 135 ft | 2 kts | 219° |
| 2026-05-04 04:14 | 59.65390 | 17.93198 | 135 ft | 0 kts | 219° |
| 2026-05-04 04:14 | 59.65400 | 17.93215 | 135 ft | 0 kts | 219° |
| 2026-05-04 04:15 | 59.65410 | 17.93232 | 135 ft | 0 kts | 219° |
| 2026-05-04 04:15 | 59.65418 | 17.93254 | 135 ft | 0 kts | 256° |
| 2026-05-04 04:15 | 59.65416 | 17.93280 | 135 ft | 0 kts | 299° |
| 2026-05-04 04:15 | 59.65406 | 17.93296 | 135 ft | 0 kts | 342° |
| 2026-05-04 04:16 | 59.65396 | 17.93301 | 135 ft | 0 kts | 346° |
| 2026-05-04 04:17 | 59.65428 | 17.93275 | 135 ft | 11 kts | 326° |
| 2026-05-04 04:17 | 59.65512 | 17.93200 | 135 ft | 14 kts | 344° |
| 2026-05-04 04:18 | 59.65593 | 17.93254 | 135 ft | 15 kts | 63° |
| 2026-05-04 04:18 | 59.65633 | 17.93521 | 135 ft | 23 kts | 78° |
| 2026-05-04 04:18 | 59.65666 | 17.93793 | 135 ft | 19 kts | 76° |
| 2026-05-04 04:18 | 59.65692 | 17.94005 | 135 ft | 0 kts | 76° |
| 2026-05-04 04:19 | 59.65688 | 17.94027 | 135 ft | 5 kts | 135° |
| 2026-05-04 04:20 | 59.65669 | 17.94002 | 135 ft | 5 kts | 267° |
| 2026-05-04 04:20 | 59.65665 | 17.93856 | 135 ft | 18 kts | 267° |
| 2026-05-04 04:20 | 59.65648 | 17.93634 | 135 ft | 14 kts | 257° |
| 2026-05-04 04:20 | 59.65620 | 17.93387 | 135 ft | 21 kts | 256° |
| 2026-05-04 04:21 | 59.65587 | 17.93132 | 135 ft | 18 kts | 256° |
| 2026-05-04 04:21 | 59.65557 | 17.92884 | 135 ft | 19 kts | 256° |
| 2026-05-04 04:21 | 59.65534 | 17.92633 | 135 ft | 18 kts | 284° |
| 2026-05-04 04:21 | 59.65630 | 17.92513 | 135 ft | 18 kts | 346° |
| 2026-05-04 04:22 | 59.65753 | 17.92463 | 135 ft | 19 kts | 2° |
| 2026-05-04 04:22 | 59.65885 | 17.92506 | 135 ft | 20 kts | 11° |
| 2026-05-04 04:22 | 59.66024 | 17.92561 | 135 ft | 21 kts | 11° |
| 2026-05-04 04:22 | 59.66172 | 17.92621 | 135 ft | 22 kts | 12° |
| 2026-05-04 04:23 | 59.66329 | 17.92677 | 135 ft | 24 kts | 11° |
| 2026-05-04 04:23 | 59.66485 | 17.92685 | 135 ft | 21 kts | 342° |
| 2026-05-04 04:23 | 59.66598 | 17.92582 | 135 ft | 15 kts | 302° |
| 2026-05-04 04:23 | 59.66584 | 17.92432 | 135 ft | 10 kts | 218° |
| 2026-05-04 04:24 | 59.66542 | 17.92400 | 135 ft | 4 kts | 191° |
| 2026-05-04 04:24 | 59.66419 | 17.92351 | 135 ft | 49 kts | 191° |
| 2026-05-04 04:24 | 59.65838 | 17.92128 | 135 ft | 119 kts | 191° |
| 2026-05-04 04:24 | 59.64826 | 17.91743 | 178 ft | 173 kts | 189° |
| 2026-05-04 04:25 | 59.63630 | 17.91286 | 497 ft | 173 kts | 190° |
| 2026-05-04 04:25 | 59.62470 | 17.90832 | 855 ft | 169 kts | 190° |
| 2026-05-04 04:25 | 59.61339 | 17.90168 | 1202 ft | 172 kts | 202° |
| 2026-05-04 04:25 | 59.60463 | 17.88573 | 1599 ft | 175 kts | 232° |
| 2026-05-04 04:26 | 59.59890 | 17.86446 | 2134 ft | 181 kts | 242° |
| 2026-05-04 04:26 | 59.59320 | 17.84150 | 2634 ft | 192 kts | 241° |
| 2026-05-04 04:26 | 59.58694 | 17.81719 | 3095 ft | 208 kts | 240° |
| 2026-05-04 04:26 | 59.58023 | 17.79054 | 3629 ft | 225 kts | 242° |
| 2026-05-04 04:27 | 59.57304 | 17.76240 | 4370 ft | 236 kts | 242° |
| 2026-05-04 04:27 | 59.56267 | 17.73700 | 5031 ft | 244 kts | 221° |
| 2026-05-04 04:27 | 59.54813 | 17.71936 | 5787 ft | 248 kts | 211° |
| 2026-05-04 04:27 | 59.53252 | 17.70440 | 6492 ft | 252 kts | 207° |
| 2026-05-04 04:28 | 59.51661 | 17.68915 | 7226 ft | 257 kts | 207° |
| 2026-05-04 04:28 | 59.50055 | 17.67348 | 7927 ft | 260 kts | 207° |
| 2026-05-04 04:28 | 59.48440 | 17.65763 | 8636 ft | 260 kts | 208° |
| 2026-05-04 04:28 | 59.46835 | 17.64188 | 9318 ft | 257 kts | 208° |
| 2026-05-04 04:29 | 59.45246 | 17.62629 | 9987 ft | 255 kts | 209° |
| 2026-05-04 04:29 | 59.43656 | 17.61070 | 10658 ft | 259 kts | 209° |
| 2026-05-04 04:29 | 59.42021 | 17.59466 | 11338 ft | 267 kts | 209° |
| 2026-05-04 04:29 | 59.40337 | 17.57817 | 12017 ft | 275 kts | 209° |
| 2026-05-04 04:30 | 59.38602 | 17.56121 | 12695 ft | 284 kts | 209° |
| 2026-05-04 04:30 | 59.36809 | 17.54369 | 13374 ft | 293 kts | 209° |
| 2026-05-04 04:30 | 59.34967 | 17.52571 | 14051 ft | 301 kts | 209° |
| 2026-05-04 04:30 | 59.33071 | 17.50722 | 14727 ft | 309 kts | 209° |
| 2026-05-04 04:31 | 59.31122 | 17.48826 | 15406 ft | 317 kts | 209° |
| 2026-05-04 04:31 | 59.29128 | 17.46887 | 16092 ft | 324 kts | 209° |
| 2026-05-04 04:31 | 59.27091 | 17.44909 | 16769 ft | 331 kts | 209° |
| 2026-05-04 04:31 | 59.25011 | 17.42892 | 17448 ft | 338 kts | 209° |
| 2026-05-04 04:32 | 59.22892 | 17.40840 | 18124 ft | 343 kts | 210° |
| 2026-05-04 04:32 | 59.20740 | 17.38760 | 18795 ft | 348 kts | 210° |
| 2026-05-04 04:32 | 59.18566 | 17.36662 | 19469 ft | 352 kts | 210° |
| 2026-05-04 04:32 | 59.16367 | 17.34542 | 20134 ft | 354 kts | 209° |
| 2026-05-04 04:33 | 59.14159 | 17.32416 | 20793 ft | 356 kts | 209° |
| 2026-05-04 04:33 | 59.11932 | 17.30275 | 21383 ft | 360 kts | 209° |
| 2026-05-04 04:33 | 59.09680 | 17.28114 | 21935 ft | 363 kts | 209° |
| 2026-05-04 04:33 | 59.07484 | 17.25699 | 22475 ft | 363 kts | 215° |
| 2026-05-04 04:34 | 59.05449 | 17.22798 | 22984 ft | 366 kts | 220° |
| 2026-05-04 04:34 | 59.03465 | 17.19651 | 23321 ft | 372 kts | 221° |
| 2026-05-04 04:34 | 59.01464 | 17.16414 | 23660 ft | 378 kts | 221° |
| 2026-05-04 04:34 | 58.99436 | 17.13143 | 23994 ft | 383 kts | 221° |
| 2026-05-04 04:35 | 58.97377 | 17.09830 | 24333 ft | 388 kts | 221° |
| 2026-05-04 04:35 | 58.95295 | 17.06485 | 24667 ft | 391 kts | 221° |
| 2026-05-04 04:35 | 58.93195 | 17.03117 | 25005 ft | 394 kts | 221° |
| 2026-05-04 04:35 | 58.91078 | 16.99726 | 25337 ft | 397 kts | 221° |
| 2026-05-04 04:36 | 58.88947 | 16.96320 | 25671 ft | 399 kts | 221° |
| 2026-05-04 04:36 | 58.86809 | 16.92907 | 26003 ft | 401 kts | 221° |
| 2026-05-04 04:36 | 58.84657 | 16.89478 | 26336 ft | 402 kts | 222° |
| 2026-05-04 04:36 | 58.82502 | 16.86051 | 26670 ft | 403 kts | 222° |
| 2026-05-04 04:37 | 58.76004 | 16.75750 | 27664 ft | 404 kts | 221° |
| 2026-05-04 04:37 | 58.73835 | 16.72323 | 27993 ft | 404 kts | 221° |
| 2026-05-04 04:38 | 58.71672 | 16.68911 | 28320 ft | 403 kts | 221° |
| 2026-05-04 04:38 | 58.69509 | 16.65504 | 28645 ft | 402 kts | 221° |
| 2026-05-04 04:38 | 58.67354 | 16.62116 | 28960 ft | 401 kts | 221° |
| 2026-05-04 04:38 | 58.65190 | 16.58719 | 29180 ft | 403 kts | 221° |
| 2026-05-04 04:39 | 58.63026 | 16.55328 | 29398 ft | 403 kts | 221° |
| 2026-05-04 04:39 | 58.60851 | 16.51930 | 29611 ft | 404 kts | 220° |
| 2026-05-04 04:39 | 58.58531 | 16.48879 | 29823 ft | 406 kts | 214° |
| 2026-05-04 04:39 | 58.56143 | 16.46028 | 30051 ft | 406 kts | 214° |
| 2026-05-04 04:40 | 58.53773 | 16.43097 | 30274 ft | 406 kts | 216° |
| 2026-05-04 04:40 | 58.51420 | 16.40164 | 30533 ft | 405 kts | 216° |
| 2026-05-04 04:40 | 58.49070 | 16.37240 | 30788 ft | 403 kts | 216° |
| 2026-05-04 04:40 | 58.46726 | 16.34328 | 31043 ft | 402 kts | 216° |
| 2026-05-04 04:41 | 58.44392 | 16.31433 | 31298 ft | 401 kts | 216° |
| 2026-05-04 04:41 | 58.42064 | 16.28552 | 31552 ft | 399 kts | 216° |
| 2026-05-04 04:41 | 58.39746 | 16.25688 | 31805 ft | 398 kts | 216° |
| 2026-05-04 04:41 | 58.37429 | 16.22829 | 32057 ft | 396 kts | 216° |
| 2026-05-04 04:42 | 58.35127 | 16.19991 | 32309 ft | 395 kts | 217° |
| 2026-05-04 04:42 | 58.32828 | 16.17161 | 32560 ft | 394 kts | 217° |
| 2026-05-04 04:42 | 58.30538 | 16.14352 | 32810 ft | 392 kts | 216° |
| 2026-05-04 04:42 | 58.28252 | 16.11548 | 33065 ft | 391 kts | 217° |
| 2026-05-04 04:43 | 58.25976 | 16.08760 | 33314 ft | 390 kts | 216° |
| 2026-05-04 04:43 | 58.23704 | 16.05983 | 33567 ft | 389 kts | 217° |
| 2026-05-04 04:43 | 58.21437 | 16.03217 | 33816 ft | 387 kts | 217° |
| 2026-05-04 04:43 | 58.19184 | 16.00471 | 34059 ft | 386 kts | 217° |
| 2026-05-04 04:44 | 58.16929 | 15.97727 | 34306 ft | 385 kts | 217° |
| 2026-05-04 04:44 | 58.14683 | 15.94998 | 34554 ft | 385 kts | 217° |
| 2026-05-04 04:44 | 58.12435 | 15.92271 | 34801 ft | 384 kts | 217° |
| 2026-05-04 04:44 | 58.10197 | 15.89560 | 35049 ft | 383 kts | 217° |
| 2026-05-04 04:45 | 58.07958 | 15.86850 | 35298 ft | 383 kts | 217° |
| 2026-05-04 04:45 | 58.05722 | 15.84151 | 35549 ft | 382 kts | 217° |
| 2026-05-04 04:45 | 58.03492 | 15.81461 | 35745 ft | 383 kts | 217° |
| 2026-05-04 04:47 | 57.89621 | 15.64825 | 35775 ft | 402 kts | 216° |
| 2026-05-04 04:47 | 57.84910 | 15.59209 | 35774 ft | 402 kts | 216° |
| 2026-05-04 04:48 | 57.80197 | 15.53609 | 35794 ft | 402 kts | 216° |
| 2026-05-04 04:49 | 57.68387 | 15.39653 | 35771 ft | 403 kts | 216° |
| 2026-05-04 04:49 | 57.63656 | 15.34092 | 35783 ft | 403 kts | 216° |
| 2026-05-04 04:50 | 57.58913 | 15.28536 | 35787 ft | 403 kts | 216° |
| 2026-05-04 04:50 | 57.54173 | 15.23000 | 35773 ft | 403 kts | 215° |
| 2026-05-04 04:51 | 57.49426 | 15.17473 | 35762 ft | 404 kts | 215° |
| 2026-05-04 04:51 | 57.44680 | 15.11963 | 35774 ft | 403 kts | 215° |
| 2026-05-04 04:52 | 57.39931 | 15.06469 | 35774 ft | 403 kts | 215° |
| 2026-05-04 04:52 | 57.35180 | 15.00988 | 35765 ft | 403 kts | 215° |
| 2026-05-04 04:53 | 57.30428 | 14.95523 | 35757 ft | 403 kts | 215° |
| 2026-05-04 04:53 | 57.25665 | 14.90063 | 35761 ft | 407 kts | 215° |
| 2026-05-04 04:54 | 57.20857 | 14.84567 | 35757 ft | 408 kts | 215° |
| 2026-05-04 04:54 | 57.16045 | 14.79085 | 35757 ft | 408 kts | 215° |
| 2026-05-04 04:55 | 57.11228 | 14.73613 | 35757 ft | 408 kts | 215° |
| 2026-05-04 04:55 | 57.06414 | 14.68163 | 35757 ft | 408 kts | 214° |
| 2026-05-04 04:56 | 57.01597 | 14.62725 | 35757 ft | 408 kts | 214° |
| 2026-05-04 04:56 | 56.96776 | 14.57299 | 35757 ft | 408 kts | 214° |
| 2026-05-04 04:57 | 56.91872 | 14.52121 | 35752 ft | 410 kts | 208° |
| 2026-05-04 04:57 | 56.86488 | 14.48579 | 35758 ft | 414 kts | 202° |
| 2026-05-04 04:58 | 56.81037 | 14.45282 | 35758 ft | 414 kts | 203° |
| 2026-05-04 04:58 | 56.75583 | 14.41980 | 35757 ft | 414 kts | 203° |
| 2026-05-04 04:59 | 56.70129 | 14.38686 | 35759 ft | 414 kts | 203° |
| 2026-05-04 04:59 | 56.64673 | 14.35401 | 35762 ft | 415 kts | 203° |
| 2026-05-04 05:00 | 56.59208 | 14.32122 | 35764 ft | 414 kts | 202° |
| 2026-05-04 05:01 | 56.51018 | 14.27224 | 35773 ft | 414 kts | 202° |
| 2026-05-04 05:01 | 56.45559 | 14.23973 | 35777 ft | 414 kts | 202° |
| 2026-05-04 05:02 | 56.40094 | 14.20727 | 35782 ft | 414 kts | 202° |
| 2026-05-04 05:02 | 56.34634 | 14.17495 | 35783 ft | 414 kts | 202° |
| 2026-05-04 05:03 | 56.29172 | 14.14271 | 35785 ft | 414 kts | 202° |
| 2026-05-04 05:04 | 56.18238 | 14.07846 | 35787 ft | 415 kts | 202° |
| 2026-05-04 05:04 | 56.12768 | 14.04646 | 35787 ft | 415 kts | 202° |
| 2026-05-04 05:06 | 55.90869 | 13.91931 | 35786 ft | 415 kts | 202° |
| 2026-05-04 05:07 | 55.85396 | 13.88777 | 35786 ft | 415 kts | 202° |
| 2026-05-04 05:07 | 55.79914 | 13.85627 | 35786 ft | 415 kts | 202° |
| 2026-05-04 05:09 | 55.55253 | 13.71571 | 35786 ft | 415 kts | 202° |
| 2026-05-04 05:10 | 55.49768 | 13.68470 | 35787 ft | 415 kts | 202° |
| 2026-05-04 05:10 | 55.44287 | 13.65380 | 35787 ft | 415 kts | 201° |
| 2026-05-04 05:11 | 55.38824 | 13.62310 | 35789 ft | 413 kts | 201° |
| 2026-05-04 05:11 | 55.33369 | 13.59252 | 35797 ft | 412 kts | 201° |
| 2026-05-04 05:12 | 55.27907 | 13.56201 | 35792 ft | 413 kts | 201° |
| 2026-05-04 05:12 | 55.22446 | 13.53157 | 35791 ft | 413 kts | 201° |
| 2026-05-04 05:13 | 55.16959 | 13.50109 | 35792 ft | 416 kts | 201° |
| 2026-05-04 05:13 | 55.11463 | 13.47064 | 35795 ft | 416 kts | 201° |
| 2026-05-04 05:14 | 55.05962 | 13.44025 | 35797 ft | 416 kts | 201° |
| 2026-05-04 05:14 | 55.00381 | 13.41441 | 35815 ft | 419 kts | 193° |
| 2026-05-04 05:15 | 54.94656 | 13.39642 | 35822 ft | 419 kts | 195° |
| 2026-05-04 05:15 | 54.89015 | 13.37360 | 35830 ft | 415 kts | 202° |
| 2026-05-04 05:16 | 54.83559 | 13.34154 | 35817 ft | 415 kts | 201° |
| 2026-05-04 05:16 | 54.78053 | 13.31149 | 35870 ft | 416 kts | 201° |
| 2026-05-04 05:17 | 54.72550 | 13.28148 | 35874 ft | 416 kts | 201° |
| 2026-05-04 05:17 | 54.67040 | 13.25152 | 35876 ft | 416 kts | 201° |
| 2026-05-04 05:18 | 54.61523 | 13.22160 | 35912 ft | 418 kts | 200° |
| 2026-05-04 05:18 | 54.55989 | 13.19167 | 35902 ft | 418 kts | 200° |
| 2026-05-04 05:19 | 54.50449 | 13.16180 | 35899 ft | 418 kts | 200° |
| 2026-05-04 05:19 | 54.44907 | 13.13221 | 35914 ft | 418 kts | 199° |
| 2026-05-04 05:20 | 54.39337 | 13.10447 | 35889 ft | 418 kts | 199° |
| 2026-05-04 05:20 | 54.33756 | 13.07663 | 35884 ft | 418 kts | 199° |
| 2026-05-04 05:21 | 54.28183 | 13.04889 | 35895 ft | 419 kts | 199° |
| 2026-05-04 05:21 | 54.22599 | 13.02117 | 35894 ft | 419 kts | 199° |
| 2026-05-04 05:22 | 54.17021 | 12.99356 | 35883 ft | 419 kts | 199° |
| 2026-05-04 05:22 | 54.11439 | 12.96572 | 35888 ft | 418 kts | 201° |
| 2026-05-04 05:23 | 54.06174 | 12.92523 | 35894 ft | 416 kts | 206° |
| 2026-05-04 05:23 | 54.00867 | 12.88621 | 35882 ft | 417 kts | 205° |
| 2026-05-04 05:24 | 53.95543 | 12.84729 | 35882 ft | 421 kts | 206° |
| 2026-05-04 05:24 | 53.90153 | 12.80798 | 35897 ft | 422 kts | 206° |
| 2026-05-04 05:25 | 53.84766 | 12.76881 | 35888 ft | 422 kts | 206° |
| 2026-05-04 05:25 | 53.79382 | 12.72975 | 35896 ft | 422 kts | 206° |
| 2026-05-04 05:26 | 53.73996 | 12.69079 | 35913 ft | 421 kts | 206° |
| 2026-05-04 05:26 | 53.68616 | 12.65196 | 35907 ft | 422 kts | 206° |
| 2026-05-04 05:28 | 53.47204 | 12.49848 | 35876 ft | 418 kts | 205° |
| 2026-05-04 05:29 | 53.41865 | 12.46047 | 35876 ft | 418 kts | 205° |
| 2026-05-04 05:29 | 53.36533 | 12.42263 | 35876 ft | 418 kts | 205° |
| 2026-05-04 05:31 | 53.15165 | 12.27195 | 35882 ft | 418 kts | 205° |
| 2026-05-04 05:32 | 53.09825 | 12.23455 | 35884 ft | 418 kts | 205° |
| 2026-05-04 05:33 | 53.01788 | 12.17846 | 35899 ft | 419 kts | 205° |
| 2026-05-04 05:33 | 52.96433 | 12.14121 | 35904 ft | 419 kts | 205° |
| 2026-05-04 05:34 | 52.91172 | 12.10061 | 35904 ft | 417 kts | 209° |
| 2026-05-04 05:34 | 52.85962 | 12.05856 | 35920 ft | 418 kts | 208° |
| 2026-05-04 05:35 | 52.80738 | 12.01687 | 35929 ft | 418 kts | 208° |
| 2026-05-04 05:35 | 52.75434 | 11.97814 | 35939 ft | 419 kts | 202° |
| 2026-05-04 05:36 | 52.69952 | 11.94525 | 35951 ft | 421 kts | 204° |
| 2026-05-04 05:36 | 52.64471 | 11.91212 | 35950 ft | 422 kts | 200° |
| 2026-05-04 05:37 | 52.58661 | 11.89651 | 35962 ft | 427 kts | 190° |
| 2026-05-04 05:37 | 52.52756 | 11.88645 | 35962 ft | 428 kts | 190° |
| 2026-05-04 05:38 | 52.43906 | 11.87100 | 35961 ft | 428 kts | 190° |
| 2026-05-04 05:38 | 52.38009 | 11.86073 | 35961 ft | 428 kts | 190° |
| 2026-05-04 05:39 | 52.29158 | 11.84534 | 35964 ft | 429 kts | 190° |
| 2026-05-04 05:40 | 52.20278 | 11.82996 | 35964 ft | 428 kts | 189° |
| 2026-05-04 05:40 | 52.14370 | 11.81979 | 35969 ft | 428 kts | 189° |
| 2026-05-04 05:41 | 52.08459 | 11.80964 | 35967 ft | 428 kts | 189° |
| 2026-05-04 05:41 | 52.02545 | 11.79951 | 35968 ft | 428 kts | 189° |
| 2026-05-04 05:42 | 51.96796 | 11.77893 | 35979 ft | 423 kts | 202° |
| 2026-05-04 05:42 | 51.91284 | 11.74662 | 35970 ft | 422 kts | 202° |
| 2026-05-04 05:43 | 51.85758 | 11.71458 | 35972 ft | 424 kts | 202° |
| 2026-05-04 05:45 | 51.63588 | 11.58676 | 35975 ft | 424 kts | 202° |
| 2026-05-04 05:47 | 51.41362 | 11.45994 | 35966 ft | 425 kts | 202° |
| 2026-05-04 05:47 | 51.35736 | 11.43116 | 35966 ft | 426 kts | 199° |
| 2026-05-04 05:48 | 51.30067 | 11.40402 | 35969 ft | 426 kts | 199° |
| 2026-05-04 05:48 | 51.24401 | 11.37674 | 35971 ft | 426 kts | 199° |
| 2026-05-04 05:49 | 51.18740 | 11.34954 | 35976 ft | 426 kts | 199° |
| 2026-05-04 05:49 | 51.13074 | 11.32239 | 35982 ft | 426 kts | 199° |
| 2026-05-04 05:51 | 50.90689 | 11.20445 | 35994 ft | 423 kts | 212° |
| 2026-05-04 05:52 | 50.85482 | 11.16148 | 35993 ft | 424 kts | 207° |
| 2026-05-04 05:52 | 50.80504 | 11.11279 | 35995 ft | 422 kts | 217° |
| 2026-05-04 05:54 | 50.61189 | 10.90365 | 36002 ft | 422 kts | 216° |
| 2026-05-04 05:55 | 50.56380 | 10.85107 | 36032 ft | 421 kts | 216° |
| 2026-05-04 05:55 | 50.51575 | 10.79867 | 36032 ft | 421 kts | 216° |
| 2026-05-04 05:56 | 50.46769 | 10.74637 | 36023 ft | 422 kts | 216° |
| 2026-05-04 05:56 | 50.41949 | 10.69405 | 36032 ft | 422 kts | 216° |
| 2026-05-04 05:57 | 50.37130 | 10.64183 | 36031 ft | 422 kts | 216° |
| 2026-05-04 05:57 | 50.32307 | 10.58977 | 36029 ft | 422 kts | 216° |
| 2026-05-04 05:58 | 50.27474 | 10.53782 | 36029 ft | 422 kts | 216° |
| 2026-05-04 05:58 | 50.22694 | 10.48499 | 36022 ft | 422 kts | 221° |
| 2026-05-04 05:59 | 50.18522 | 10.42125 | 36027 ft | 421 kts | 227° |
| 2026-05-04 05:59 | 50.14451 | 10.35602 | 36024 ft | 421 kts | 226° |
| 2026-05-04 06:00 | 50.10357 | 10.29075 | 36024 ft | 422 kts | 226° |
| 2026-05-04 06:00 | 50.06042 | 10.22930 | 36026 ft | 423 kts | 217° |
| 2026-05-04 06:01 | 50.01196 | 10.17776 | 36024 ft | 423 kts | 215° |
| 2026-05-04 06:03 | 49.81757 | 9.97380 | 36033 ft | 423 kts | 215° |
| 2026-05-04 06:05 | 49.59835 | 9.74610 | 36047 ft | 423 kts | 215° |
| 2026-05-04 06:06 | 49.54952 | 9.69573 | 36052 ft | 423 kts | 215° |
| 2026-05-04 06:06 | 49.50065 | 9.64542 | 36052 ft | 426 kts | 215° |
| 2026-05-04 06:07 | 49.45128 | 9.59474 | 36050 ft | 428 kts | 215° |
| 2026-05-04 06:07 | 49.40191 | 9.54418 | 36048 ft | 428 kts | 215° |
| 2026-05-04 06:08 | 49.35249 | 9.49369 | 36052 ft | 428 kts | 215° |
| 2026-05-04 06:08 | 49.30306 | 9.44332 | 36052 ft | 428 kts | 215° |
| 2026-05-04 06:09 | 49.25360 | 9.39304 | 36050 ft | 428 kts | 215° |
| 2026-05-04 06:11 | 49.05544 | 9.19282 | 36036 ft | 428 kts | 214° |
| 2026-05-04 06:13 | 48.85679 | 8.99403 | 36023 ft | 429 kts | 214° |
| 2026-05-04 06:14 | 48.68257 | 8.82126 | 36023 ft | 429 kts | 214° |
| 2026-05-04 06:15 | 48.63273 | 8.77211 | 36023 ft | 429 kts | 214° |
| 2026-05-04 06:15 | 48.58290 | 8.72307 | 36022 ft | 429 kts | 214° |
| 2026-05-04 06:16 | 48.53303 | 8.67412 | 36023 ft | 428 kts | 214° |
| 2026-05-04 06:16 | 48.48323 | 8.62536 | 36023 ft | 428 kts | 215° |
| 2026-05-04 06:17 | 48.43336 | 8.57664 | 36023 ft | 428 kts | 215° |
| 2026-05-04 06:17 | 48.38349 | 8.52803 | 36025 ft | 428 kts | 215° |
| 2026-05-04 06:18 | 48.33364 | 8.47957 | 36027 ft | 428 kts | 214° |
| 2026-05-04 06:20 | 48.13257 | 8.29029 | 36044 ft | 429 kts | 210° |
| 2026-05-04 06:21 | 48.00155 | 8.18454 | 36026 ft | 429 kts | 211° |
| 2026-05-04 06:22 | 47.94941 | 8.14243 | 36031 ft | 424 kts | 210° |
| 2026-05-04 06:25 | 47.58649 | 7.85200 | 37026 ft | 424 kts | 210° |
| 2026-05-04 06:26 | 47.53459 | 7.81084 | 37025 ft | 424 kts | 210° |
| 2026-05-04 06:26 | 47.48269 | 7.76977 | 37025 ft | 424 kts | 210° |
| 2026-05-04 06:27 | 47.35283 | 7.66743 | 37027 ft | 424 kts | 210° |
| 2026-05-04 06:28 | 47.30197 | 7.62436 | 37024 ft | 422 kts | 217° |
| 2026-05-04 06:28 | 47.25768 | 7.56819 | 37045 ft | 420 kts | 223° |
| 2026-05-04 06:29 | 47.21412 | 7.51098 | 37045 ft | 420 kts | 223° |
| 2026-05-04 06:29 | 47.17050 | 7.45396 | 37049 ft | 421 kts | 222° |
| 2026-05-04 06:30 | 47.12683 | 7.39699 | 37050 ft | 421 kts | 222° |
| 2026-05-04 06:30 | 47.08312 | 7.34013 | 37053 ft | 421 kts | 222° |
| 2026-05-04 06:31 | 47.03939 | 7.28336 | 37053 ft | 421 kts | 222° |
| 2026-05-04 06:31 | 46.99565 | 7.22671 | 37053 ft | 421 kts | 222° |
| 2026-05-04 06:33 | 46.82033 | 7.00092 | 37053 ft | 421 kts | 222° |
| 2026-05-04 06:34 | 46.77640 | 6.94466 | 37053 ft | 421 kts | 222° |
| 2026-05-04 06:34 | 46.73245 | 6.88851 | 37053 ft | 421 kts | 222° |
| 2026-05-04 06:36 | 46.55648 | 6.66494 | 37052 ft | 421 kts | 222° |
| 2026-05-04 06:37 | 46.51242 | 6.60927 | 37052 ft | 421 kts | 222° |
| 2026-05-04 06:37 | 46.46832 | 6.55368 | 37052 ft | 421 kts | 222° |
| 2026-05-04 06:38 | 46.42416 | 6.49813 | 37052 ft | 421 kts | 222° |
| 2026-05-04 06:40 | 46.24754 | 6.27721 | 37046 ft | 415 kts | 221° |
| 2026-05-04 06:40 | 46.20386 | 6.22287 | 37050 ft | 415 kts | 221° |
| 2026-05-04 06:41 | 46.16017 | 6.16864 | 37046 ft | 415 kts | 221° |
| 2026-05-04 06:41 | 46.11646 | 6.11451 | 37045 ft | 415 kts | 221° |
| 2026-05-04 06:42 | 46.07281 | 6.06057 | 37046 ft | 415 kts | 221° |
| 2026-05-04 06:44 | 45.89645 | 5.84776 | 37024 ft | 415 kts | 219° |
| 2026-05-04 06:44 | 45.85152 | 5.79600 | 37022 ft | 415 kts | 219° |
| 2026-05-04 06:45 | 45.80657 | 5.74429 | 37022 ft | 415 kts | 219° |
| 2026-05-04 06:45 | 45.76164 | 5.69272 | 37022 ft | 415 kts | 219° |
| 2026-05-04 06:46 | 45.71664 | 5.64117 | 37023 ft | 415 kts | 219° |
| 2026-05-04 06:46 | 45.67161 | 5.58978 | 37023 ft | 415 kts | 218° |
| 2026-05-04 06:48 | 45.48601 | 5.39499 | 37023 ft | 414 kts | 217° |
| 2026-05-04 06:50 | 45.30045 | 5.20163 | 37026 ft | 414 kts | 217° |
| 2026-05-04 06:51 | 45.25399 | 5.15347 | 37028 ft | 414 kts | 217° |
| 2026-05-04 06:51 | 45.20756 | 5.10544 | 37029 ft | 414 kts | 217° |
| 2026-05-04 06:52 | 45.16109 | 5.05746 | 37035 ft | 415 kts | 217° |
| 2026-05-04 06:52 | 45.11458 | 5.00955 | 37047 ft | 414 kts | 217° |
| 2026-05-04 06:53 | 45.06804 | 4.96169 | 37048 ft | 414 kts | 217° |
| 2026-05-04 06:53 | 45.02150 | 4.91396 | 37048 ft | 414 kts | 217° |
| 2026-05-04 06:54 | 44.97488 | 4.86622 | 37051 ft | 414 kts | 217° |
| 2026-05-04 06:54 | 44.92832 | 4.81864 | 37052 ft | 414 kts | 217° |
| 2026-05-04 06:55 | 44.88172 | 4.77113 | 37053 ft | 414 kts | 216° |
| 2026-05-04 06:55 | 44.83510 | 4.72369 | 37053 ft | 414 kts | 216° |
| 2026-05-04 06:57 | 44.64821 | 4.53447 | 37056 ft | 420 kts | 216° |
| 2026-05-04 06:58 | 44.60093 | 4.48685 | 37053 ft | 418 kts | 216° |
| 2026-05-04 06:58 | 44.55377 | 4.43944 | 37053 ft | 418 kts | 216° |
| 2026-05-04 06:59 | 44.50652 | 4.39204 | 37052 ft | 419 kts | 216° |
| 2026-05-04 06:59 | 44.45925 | 4.34471 | 37052 ft | 419 kts | 216° |
| 2026-05-04 07:01 | 44.25912 | 4.18136 | 37027 ft | 420 kts | 208° |
| 2026-05-04 07:02 | 44.20668 | 4.14486 | 37027 ft | 423 kts | 208° |
| 2026-05-04 07:02 | 44.15420 | 4.10843 | 37027 ft | 423 kts | 208° |
| 2026-05-04 07:03 | 44.10168 | 4.07205 | 37024 ft | 423 kts | 208° |
| 2026-05-04 07:03 | 44.04908 | 4.03568 | 37023 ft | 423 kts | 208° |
| 2026-05-04 07:04 | 43.99650 | 3.99941 | 37023 ft | 423 kts | 208° |
| 2026-05-04 07:04 | 43.94392 | 3.96320 | 37020 ft | 422 kts | 208° |
| 2026-05-04 07:05 | 43.89139 | 3.92710 | 37022 ft | 423 kts | 208° |
| 2026-05-04 07:05 | 43.83874 | 3.89098 | 37018 ft | 423 kts | 208° |
| 2026-05-04 07:06 | 43.75990 | 3.83705 | 37017 ft | 423 kts | 208° |
| 2026-05-04 07:07 | 43.70728 | 3.80113 | 37022 ft | 423 kts | 208° |
| 2026-05-04 07:09 | 43.49674 | 3.65814 | 36996 ft | 423 kts | 208° |
| 2026-05-04 07:09 | 43.44405 | 3.62252 | 36988 ft | 420 kts | 210° |
| 2026-05-04 07:10 | 43.39231 | 3.58763 | 36983 ft | 415 kts | 210° |
| 2026-05-04 07:12 | 43.18537 | 3.44871 | 36965 ft | 415 kts | 209° |
| 2026-05-04 07:12 | 43.13362 | 3.41413 | 36961 ft | 415 kts | 209° |
| 2026-05-04 07:13 | 43.08184 | 3.37960 | 36955 ft | 415 kts | 209° |
| 2026-05-04 07:13 | 43.03091 | 3.34570 | 36504 ft | 403 kts | 209° |
| 2026-05-04 07:14 | 42.93054 | 3.27907 | 34504 ft | 401 kts | 210° |
| 2026-05-04 07:14 | 42.90550 | 3.26249 | 34000 ft | 401 kts | 210° |
| 2026-05-04 07:15 | 42.88051 | 3.24597 | 33492 ft | 400 kts | 209° |
| 2026-05-04 07:15 | 42.85554 | 3.22947 | 32982 ft | 399 kts | 209° |
| 2026-05-04 07:15 | 42.83061 | 3.21301 | 32471 ft | 399 kts | 209° |
| 2026-05-04 07:15 | 42.80577 | 3.19661 | 31960 ft | 398 kts | 208° |
| 2026-05-04 07:16 | 42.78091 | 3.18023 | 31446 ft | 397 kts | 208° |
| 2026-05-04 07:16 | 42.75612 | 3.16390 | 30930 ft | 397 kts | 208° |
| 2026-05-04 07:16 | 42.73142 | 3.14764 | 30415 ft | 396 kts | 207° |
| 2026-05-04 07:16 | 42.70670 | 3.13137 | 29896 ft | 395 kts | 207° |
| 2026-05-04 07:17 | 42.68204 | 3.11517 | 29377 ft | 394 kts | 207° |
| 2026-05-04 07:17 | 42.65742 | 3.09901 | 28857 ft | 394 kts | 207° |
| 2026-05-04 07:17 | 42.63285 | 3.08290 | 28337 ft | 393 kts | 207° |
| 2026-05-04 07:17 | 42.60833 | 3.06683 | 27815 ft | 392 kts | 207° |
| 2026-05-04 07:18 | 42.58386 | 3.05081 | 27294 ft | 391 kts | 207° |
| 2026-05-04 07:18 | 42.55946 | 3.03485 | 26770 ft | 390 kts | 207° |
| 2026-05-04 07:18 | 42.53509 | 3.01892 | 26264 ft | 388 kts | 207° |
| 2026-05-04 07:18 | 42.51137 | 3.00206 | 25816 ft | 384 kts | 214° |
| 2026-05-04 07:19 | 42.49212 | 2.97765 | 25390 ft | 380 kts | 230° |
| 2026-05-04 07:19 | 42.47788 | 2.94786 | 24999 ft | 376 kts | 240° |
| 2026-05-04 07:19 | 42.46798 | 2.91529 | 24563 ft | 375 kts | 249° |
| 2026-05-04 07:19 | 42.45859 | 2.88266 | 24042 ft | 371 kts | 240° |
| 2026-05-04 07:20 | 42.44256 | 2.85572 | 23483 ft | 369 kts | 222° |
| 2026-05-04 07:20 | 42.42143 | 2.83625 | 22945 ft | 369 kts | 210° |
| 2026-05-04 07:20 | 42.39803 | 2.82226 | 22371 ft | 371 kts | 201° |
| 2026-05-04 07:20 | 42.37313 | 2.81320 | 21804 ft | 372 kts | 194° |
| 2026-05-04 07:22 | 42.19998 | 2.77032 | 18703 ft | 349 kts | 194° |
| 2026-05-04 07:22 | 42.17628 | 2.76452 | 18280 ft | 345 kts | 194° |
| 2026-05-04 07:23 | 42.15294 | 2.75843 | 17846 ft | 339 kts | 198° |
| 2026-05-04 07:23 | 42.13197 | 2.74545 | 17409 ft | 329 kts | 215° |
| 2026-05-04 07:23 | 42.11476 | 2.72594 | 17018 ft | 321 kts | 226° |
| 2026-05-04 07:23 | 42.09972 | 2.70415 | 16614 ft | 317 kts | 229° |
| 2026-05-04 07:24 | 42.08526 | 2.68217 | 16204 ft | 312 kts | 229° |
| 2026-05-04 07:24 | 42.07101 | 2.66050 | 15794 ft | 308 kts | 229° |
| 2026-05-04 07:24 | 42.05694 | 2.63910 | 15381 ft | 303 kts | 229° |
| 2026-05-04 07:24 | 42.04312 | 2.61809 | 14971 ft | 299 kts | 229° |
| 2026-05-04 07:25 | 42.02948 | 2.59736 | 14561 ft | 294 kts | 229° |
| 2026-05-04 07:26 | 41.93858 | 2.45968 | 11663 ft | 274 kts | 229° |
| 2026-05-04 07:27 | 41.92597 | 2.44061 | 11243 ft | 273 kts | 229° |
| 2026-05-04 07:27 | 41.91334 | 2.42162 | 10822 ft | 273 kts | 228° |
| 2026-05-04 07:27 | 41.89807 | 2.40678 | 10372 ft | 275 kts | 206° |
| 2026-05-04 07:27 | 41.87966 | 2.40024 | 10096 ft | 276 kts | 192° |
| 2026-05-04 07:28 | 41.86050 | 2.39763 | 9778 ft | 277 kts | 187° |
| 2026-05-04 07:28 | 41.84135 | 2.39542 | 9440 ft | 276 kts | 187° |
| 2026-05-04 07:28 | 41.82243 | 2.39278 | 9104 ft | 273 kts | 188° |
| 2026-05-04 07:28 | 41.80366 | 2.38996 | 8767 ft | 271 kts | 188° |
| 2026-05-04 07:29 | 41.78497 | 2.38711 | 8433 ft | 270 kts | 188° |
| 2026-05-04 07:29 | 41.76643 | 2.38426 | 8097 ft | 268 kts | 188° |
| 2026-05-04 07:29 | 41.74798 | 2.38143 | 7763 ft | 267 kts | 188° |
| 2026-05-04 07:29 | 41.72959 | 2.37859 | 7423 ft | 268 kts | 188° |
| 2026-05-04 07:30 | 41.71105 | 2.37575 | 7086 ft | 269 kts | 188° |
| 2026-05-04 07:30 | 41.69257 | 2.37291 | 6745 ft | 267 kts | 188° |
| 2026-05-04 07:30 | 41.67420 | 2.37008 | 6404 ft | 266 kts | 188° |
| 2026-05-04 07:30 | 41.65588 | 2.36727 | 6064 ft | 265 kts | 188° |
| 2026-05-04 07:31 | 41.63756 | 2.36445 | 5723 ft | 265 kts | 188° |
| 2026-05-04 07:31 | 41.61935 | 2.36165 | 5381 ft | 264 kts | 188° |
| 2026-05-04 07:33 | 41.49190 | 2.34211 | 3061 ft | 262 kts | 187° |
| 2026-05-04 07:33 | 41.47424 | 2.33952 | 3017 ft | 250 kts | 185° |
| 2026-05-04 07:33 | 41.45758 | 2.34315 | 2992 ft | 239 kts | 160° |
| 2026-05-04 07:33 | 41.44334 | 2.35336 | 3009 ft | 228 kts | 150° |
| 2026-05-04 07:34 | 41.42915 | 2.36176 | 2975 ft | 222 kts | 168° |
| 2026-05-04 07:34 | 41.41427 | 2.36188 | 3034 ft | 211 kts | 184° |
| 2026-05-04 07:34 | 41.39994 | 2.35884 | 2982 ft | 209 kts | 200° |
| 2026-05-04 07:34 | 41.38875 | 2.34703 | 3011 ft | 207 kts | 231° |
| 2026-05-04 07:35 | 41.38185 | 2.33096 | 3020 ft | 194 kts | 245° |
| 2026-05-04 07:35 | 41.37711 | 2.31483 | 3007 ft | 182 kts | 249° |
| 2026-05-04 07:35 | 41.37258 | 2.29943 | 3019 ft | 179 kts | 247° |
| 2026-05-04 07:35 | 41.36771 | 2.28424 | 2863 ft | 179 kts | 245° |
| 2026-05-04 07:36 | 41.36267 | 2.26938 | 2628 ft | 174 kts | 244° |
| 2026-05-04 07:36 | 41.35768 | 2.25497 | 2399 ft | 169 kts | 245° |
| 2026-05-04 07:38 | 41.32625 | 2.16329 | 1027 ft | 154 kts | 247° |
| 2026-05-04 07:38 | 41.32175 | 2.15040 | 797 ft | 153 kts | 246° |
| 2026-05-04 07:38 | 41.31736 | 2.13764 | 595 ft | 151 kts | 247° |
| 2026-05-04 07:38 | 41.31309 | 2.12499 | 414 ft | 149 kts | 246° |
| 2026-05-04 07:39 | 41.30875 | 2.11251 | 208 ft | 148 kts | 245° |
| 2026-05-04 07:39 | 41.30451 | 2.10011 | 44 ft | 147 kts | 245° |
| 2026-05-04 07:39 | 41.30067 | 2.08874 | 23 ft | 113 kts | 244° |
| 2026-05-04 07:39 | 41.29812 | 2.08144 | 23 ft | 63 kts | 245° |
| 2026-05-04 07:40 | 41.29709 | 2.07929 | 23 ft | 17 kts | 212° |
| 2026-05-04 07:40 | 41.29619 | 2.07854 | 23 ft | 15 kts | 213° |
| 2026-05-04 07:40 | 41.29537 | 2.07791 | 23 ft | 12 kts | 180° |
| 2026-05-04 07:40 | 41.29470 | 2.07816 | 23 ft | 9 kts | 156° |
| 2026-05-04 07:41 | 41.29389 | 2.07864 | 23 ft | 14 kts | 156° |
| 2026-05-04 07:41 | 41.29308 | 2.07912 | 23 ft | 11 kts | 155° |
| 2026-05-04 07:41 | 41.29247 | 2.07939 | 23 ft | 6 kts | 205° |
| 2026-05-04 07:41 | 41.29229 | 2.07911 | 23 ft | 2 kts | 246° |
| 2026-05-04 07:42 | 41.29212 | 2.07861 | 23 ft | 9 kts | 246° |
| 2026-05-04 07:42 | 41.29188 | 2.07790 | 23 ft | 9 kts | 246° |
| 2026-05-04 07:42 | 41.29164 | 2.07719 | 23 ft | 7 kts | 246° |
| 2026-05-04 07:42 | 41.29138 | 2.07703 | 23 ft | 3 kts | 152° |
| 2026-05-04 07:43 | 41.29120 | 2.07715 | 23 ft | 3 kts | 155° |
| 2026-05-04 07:43 | 41.29101 | 2.07727 | 23 ft | 3 kts | 156° |
| 2026-05-04 07:43 | 41.29083 | 2.07737 | 23 ft | 0 kts | 156° |